RJAA/NRT METAR and TAF weather

Enter ICAO airport designator
Station Type Date Time Source
RJAA METAR 2020/07/06 02:00 UTC NOAA

RJAA 060200Z 19009KT 150V220 9999 -SHRA FEW008 BKN100 BKN150 25/24 Q1010 NOSIG RMK 1ST008 5AC100 7AC150 A2982


Station Type Date Time Source
RJAA Decoded METAR 2020/07/06 02:00 UTC NOAA

New Tokyo Inter-National Airport, Japan (RJAA) 35-46N 140-23E 44M
Jul 05, 2020 - 10:00 PM EDT / 2020.07.06 0200 UTC
Wind: from the S (190 degrees) at 10 MPH (9 KT) (direction variable):0
Visibility: greater than 7 mile(s):0
Sky conditions: mostly cloudy
Weather: light rain showers
Temperature: 77 F (25 C)
Dew Point: 75 F (24 C)
Relative Humidity: 94%
Pressure (altimeter): 29.83 in. Hg (1010 hPa)
ob: RJAA 060200Z 19009KT 150V220 9999 -SHRA FEW008 BKN100 BKN150 25/24 Q1010 NOSIG RMK 1ST008 5AC100 7AC150 A2982
cycle: 2

Station Type Date Time Source
RJAA TAF 2020/07/06 02:21 UTC NOAA

TAF TAF
AMD RJAA 060211Z 0602/0706 20014KT 9000 -SHRA FEW015 BKN030
TEMPO 0602/0608 20016G28KT
BECMG 0621/0700 20018G30KT

Example: see airport list